Time;durP1;ratioP1;P1;durP2;ratioP2;P2;SDS_P1;SDS_P2;PMS_P1;PMS_P2;Temp;Humidity;BMP_temperature;BMP_pressure;BME280_temperature;BME280_humidity;BME280_pressure;Samples;Min_cycle;Max_cycle;Signal;HPM_P1;HPM_P2
2024/01/02 00:00:20;;;;;;;1.30;0.55;;;;;;;;;;5052996;28;20144;-65
2024/01/02 00:02:46;;;;;;;0.70;0.50;;;;;;;;;;5053110;28;20033;-65
2024/01/02 00:05:12;;;;;;;0.47;0.40;;;;;;;;;;5053047;28;20025;-66
2024/01/02 00:07:39;;;;;;;1.00;0.50;;;;;;;;;;5053023;28;20101;-65
2024/01/02 00:10:05;;;;;;;1.02;0.30;;;;;;;;;;5052786;28;20036;-65
2024/01/02 00:12:31;;;;;;;0.50;0.35;;;;;;;;;;5052796;28;20025;-65
2024/01/02 00:14:57;;;;;;;1.42;0.40;;;;;;;;;;5052686;28;20071;-65
2024/01/02 00:17:23;;;;;;;1.00;0.40;;;;;;;;;;5052793;28;20029;-65
2024/01/02 00:19:49;;;;;;;0.75;0.32;;;;;;;;;;5055572;28;20037;-65
2024/01/02 00:22:15;;;;;;;0.17;0.17;;;;;;;;;;5056216;28;20117;-65
2024/01/02 00:24:41;;;;;;;0.50;0.25;;;;;;;;;;5056356;28;20021;-65
2024/01/02 00:27:07;;;;;;;1.15;0.30;;;;;;;;;;5055528;28;20061;-65
2024/01/02 00:29:33;;;;;;;1.00;0.30;;;;;;;;;;5052246;28;20078;-65
2024/01/02 00:31:59;;;;;;;0.88;0.32;;;;;;;;;;5052545;28;20033;-66
2024/01/02 00:34:25;;;;;;;0.30;0.30;;;;;;;;;;5052289;28;20436;-65
2024/01/02 00:36:51;;;;;;;0.52;0.20;;;;;;;;;;5052436;28;20095;-65
2024/01/02 00:39:17;;;;;;;0.57;0.45;;;;;;;;;;5052122;28;20025;-67
2024/01/02 00:41:43;;;;;;;1.08;0.38;;;;;;;;;;5052040;28;20159;-65
2024/01/02 00:44:09;;;;;;;0.75;0.20;;;;;;;;;;5050859;28;20028;-65
2024/01/02 00:46:35;;;;;;;0.20;0.20;;;;;;;;;;5052077;28;20025;-65
2024/01/02 00:49:01;;;;;;;0.52;0.25;;;;;;;;;;5052122;28;20017;-65
2024/01/02 00:51:27;;;;;;;1.02;0.40;;;;;;;;;;5051807;28;20067;-65
2024/01/02 00:53:53;;;;;;;0.73;0.30;;;;;;;;;;5052116;28;20086;-65
2024/01/02 00:56:19;;;;;;;1.33;0.38;;;;;;;;;;5051884;28;20128;-65
2024/01/02 00:58:45;;;;;;;0.30;0.20;;;;;;;;;;5051839;28;20508;-65
2024/01/02 01:01:11;;;;;;;0.35;0.35;;;;;;;;;;5051569;28;20086;-65
2024/01/02 01:03:38;;;;;;;1.17;0.35;;;;;;;;;;5051932;28;20111;-66
2024/01/02 01:06:04;;;;;;;1.77;0.50;;;;;;;;;;5051811;28;20024;-66
2024/01/02 01:08:30;;;;;;;0.30;0.25;;;;;;;;;;5051148;28;20025;-66
2024/01/02 01:10:56;;;;;;;0.85;0.35;;;;;;;;;;5051471;28;20021;-66
2024/01/02 01:13:22;;;;;;;1.45;0.30;;;;;;;;;;5051691;28;20033;-66
2024/01/02 01:15:48;;;;;;;0.52;0.30;;;;;;;;;;5051734;28;20021;-66
2024/01/02 01:18:14;;;;;;;3.10;0.93;;;;;;;;;;5051483;28;20017;-66
2024/01/02 01:20:40;;;;;;;0.20;0.10;;;;;;;;;;5051325;28;20127;-66
2024/01/02 01:23:06;;;;;;;0.50;0.40;;;;;;;;;;5051506;28;20021;-66
2024/01/02 01:25:32;;;;;;;0.30;0.15;;;;;;;;;;5051593;28;20429;-66
2024/01/02 01:27:58;;;;;;;2.20;0.50;;;;;;;;;;5050075;28;20032;-66
2024/01/02 01:30:24;;;;;;;1.35;0.60;;;;;;;;;;5051295;28;20397;-65
2024/01/02 01:32:50;;;;;;;0.85;0.30;;;;;;;;;;5051439;28;20124;-66
2024/01/02 01:35:16;;;;;;;3.15;0.80;;;;;;;;;;5052153;28;20040;-66
2024/01/02 01:37:42;;;;;;;1.58;0.40;;;;;;;;;;5051384;28;20075;-66
2024/01/02 01:40:09;;;;;;;1.15;0.32;;;;;;;;;;5051200;28;20025;-66
2024/01/02 01:42:36;;;;;;;1.35;0.30;;;;;;;;;;5051629;28;20039;-65
2024/01/02 01:45:02;;;;;;;0.40;0.20;;;;;;;;;;5051600;28;20024;-66
2024/01/02 01:47:28;;;;;;;0.43;0.20;;;;;;;;;;5051289;28;20044;-66
2024/01/02 01:49:54;;;;;;;0.40;0.20;;;;;;;;;;5051026;28;20471;-65
2024/01/02 01:52:20;;;;;;;0.60;0.45;;;;;;;;;;5051346;28;20040;-65
2024/01/02 01:54:46;;;;;;;0.63;0.40;;;;;;;;;;5051203;28;20025;-66
2024/01/02 01:57:13;;;;;;;0.50;0.47;;;;;;;;;;5051311;28;20029;-66
2024/01/02 01:59:39;;;;;;;1.05;0.35;;;;;;;;;;5050910;28;20482;-66
2024/01/02 02:02:05;;;;;;;0.82;0.30;;;;;;;;;;5051235;28;20078;-66
2024/01/02 02:04:32;;;;;;;1.83;0.57;;;;;;;;;;5051197;28;20025;-65
2024/01/02 02:06:58;;;;;;;0.60;0.20;;;;;;;;;;5051236;28;20027;-66
2024/01/02 02:09:24;;;;;;;1.38;0.35;;;;;;;;;;5050711;28;20029;-66
2024/01/02 02:11:51;;;;;;;0.77;0.40;;;;;;;;;;5051056;28;20052;-66
2024/01/02 02:14:17;;;;;;;0.45;0.20;;;;;;;;;;5051133;28;20029;-66
2024/01/02 02:16:43;;;;;;;1.30;0.43;;;;;;;;;;5052168;28;20025;-66
2024/01/02 02:19:09;;;;;;;1.40;0.43;;;;;;;;;;5051104;28;20493;-66
2024/01/02 02:21:36;;;;;;;0.90;0.32;;;;;;;;;;5054649;28;20021;-66
2024/01/02 02:24:02;;;;;;;0.57;0.20;;;;;;;;;;5054782;28;20032;-66
2024/01/02 02:26:29;;;;;;;0.95;0.30;;;;;;;;;;5054818;28;20018;-66
2024/01/02 02:28:55;;;;;;;0.93;0.50;;;;;;;;;;5054713;28;20502;-66
2024/01/02 02:31:21;;;;;;;0.98;0.25;;;;;;;;;;5053241;28;20036;-66
2024/01/02 02:33:47;;;;;;;0.52;0.20;;;;;;;;;;5054489;28;20642;-66
2024/01/02 02:36:13;;;;;;;0.20;0.20;;;;;;;;;;5054779;28;20017;-66
2024/01/02 02:38:39;;;;;;;0.32;0.25;;;;;;;;;;5054638;28;20075;-66
2024/01/02 02:41:05;;;;;;;0.52;0.28;;;;;;;;;;5054434;28;20170;-65
2024/01/02 02:43:31;;;;;;;0.40;0.35;;;;;;;;;;5054480;28;20080;-66
2024/01/02 02:45:57;;;;;;;1.10;0.30;;;;;;;;;;5054649;28;20021;-67
2024/01/02 02:48:23;;;;;;;0.28;0.25;;;;;;;;;;5054614;28;20390;-65
2024/01/02 02:50:49;;;;;;;0.65;0.30;;;;;;;;;;5054092;28;20025;-66
2024/01/02 02:53:15;;;;;;;0.98;0.43;;;;;;;;;;5054474;28;20031;-66
2024/01/02 02:55:41;;;;;;;0.73;0.28;;;;;;;;;;5054247;28;20025;-66
2024/01/02 02:58:07;;;;;;;1.10;0.20;;;;;;;;;;5054037;28;20104;-66
2024/01/02 03:00:34;;;;;;;0.35;0.10;;;;;;;;;;5053859;28;20108;-66
2024/01/02 03:03:00;;;;;;;0.30;0.15;;;;;;;;;;5053921;28;20029;-66
2024/01/02 03:05:26;;;;;;;0.15;0.10;;;;;;;;;;5054317;28;20092;-66
2024/01/02 03:07:52;;;;;;;0.95;0.40;;;;;;;;;;5053866;28;20028;-66
2024/01/02 03:10:18;;;;;;;0.20;0.20;;;;;;;;;;5054040;28;20029;-66
2024/01/02 03:12:45;;;;;;;0.40;0.20;;;;;;;;;;5052319;28;20043;-66
2024/01/02 03:15:11;;;;;;;0.45;0.10;;;;;;;;;;5052639;28;20047;-65
2024/01/02 03:17:37;;;;;;;1.00;0.47;;;;;;;;;;5052631;28;20064;-66
2024/01/02 03:20:03;;;;;;;0.57;0.32;;;;;;;;;;5052383;28;20055;-66
2024/01/02 03:22:29;;;;;;;0.20;0.17;;;;;;;;;;5052541;28;20474;-66
2024/01/02 03:24:56;;;;;;;0.40;0.30;;;;;;;;;;5052473;28;20105;-66
2024/01/02 03:27:22;;;;;;;0.38;0.20;;;;;;;;;;5050985;28;20049;-66
2024/01/02 03:29:48;;;;;;;0.40;0.15;;;;;;;;;;5051802;28;20021;-66
2024/01/02 03:32:14;;;;;;;0.57;0.25;;;;;;;;;;5051880;28;20036;-66
2024/01/02 03:34:40;;;;;;;0.25;0.20;;;;;;;;;;5052493;28;20083;-66
2024/01/02 03:37:05;;;;;;;0.30;0.17;;;;;;;;;;5052281;28;20036;-66
2024/01/02 03:39:31;;;;;;;0.30;0.10;;;;;;;;;;5051704;28;20033;-65
2024/01/02 03:41:57;;;;;;;0.82;0.30;;;;;;;;;;5049250;28;20068;-66
2024/01/02 03:44:24;;;;;;;0.10;0.05;;;;;;;;;;5052230;28;20394;-66
2024/01/02 03:46:50;;;;;;;0.38;0.13;;;;;;;;;;5052161;28;20027;-66
2024/01/02 03:49:16;;;;;;;0.57;0.22;;;;;;;;;;5052003;28;20025;-66
2024/01/02 03:51:42;;;;;;;0.75;0.32;;;;;;;;;;5051953;28;20393;-66
2024/01/02 03:54:08;;;;;;;0.57;0.20;;;;;;;;;;5052395;28;20021;-66
2024/01/02 03:56:34;;;;;;;0.75;0.38;;;;;;;;;;5052075;28;20040;-66
2024/01/02 03:59:00;;;;;;;0.38;0.00;;;;;;;;;;5051836;28;20025;-66
2024/01/02 04:01:26;;;;;;;0.30;0.10;;;;;;;;;;5051815;28;20445;-66
2024/01/02 04:03:52;;;;;;;1.95;0.38;;;;;;;;;;5052012;28;20053;-66
2024/01/02 04:06:19;;;;;;;0.10;0.10;;;;;;;;;;5052012;28;20033;-66
2024/01/02 04:08:45;;;;;;;0.28;0.22;;;;;;;;;;5051833;28;20044;-66
2024/01/02 04:11:13;;;;;;;0.30;0.10;;;;;;;;;;5051710;28;20444;-66
2024/01/02 04:13:39;;;;;;;0.20;0.20;;;;;;;;;;5051924;28;20656;-66
2024/01/02 04:16:05;;;;;;;0.32;0.22;;;;;;;;;;5051974;28;20029;-66
2024/01/02 04:18:32;;;;;;;0.20;0.10;;;;;;;;;;5051664;28;20049;-66
2024/01/02 04:20:58;;;;;;;1.08;0.20;;;;;;;;;;5051616;28;20036;-66
2024/01/02 04:23:24;;;;;;;0.45;0.20;;;;;;;;;;5051395;28;20051;-66
2024/01/02 04:25:50;;;;;;;0.32;0.22;;;;;;;;;;5051469;28;20021;-66
2024/01/02 04:28:16;;;;;;;0.60;0.20;;;;;;;;;;5051403;28;20493;-66
2024/01/02 04:30:42;;;;;;;0.20;0.15;;;;;;;;;;5051196;28;20029;-66
2024/01/02 04:33:08;;;;;;;0.20;0.15;;;;;;;;;;5051399;28;20153;-65
2024/01/02 04:35:34;;;;;;;0.30;0.30;;;;;;;;;;5051413;28;20498;-66
2024/01/02 04:38:00;;;;;;;0.10;0.10;;;;;;;;;;5051337;28;20366;-66
2024/01/02 04:40:26;;;;;;;0.20;0.10;;;;;;;;;;5050900;28;20025;-66
2024/01/02 04:42:52;;;;;;;0.10;0.10;;;;;;;;;;5050868;28;20021;-66
2024/01/02 04:45:18;;;;;;;0.30;0.10;;;;;;;;;;5051134;28;20570;-65
2024/01/02 04:47:44;;;;;;;0.22;0.10;;;;;;;;;;5050924;28;20044;-66
2024/01/02 04:50:10;;;;;;;0.15;0.10;;;;;;;;;;5050859;28;20041;-66
2024/01/02 04:52:36;;;;;;;0.40;0.20;;;;;;;;;;5049668;28;20509;-66
2024/01/02 04:55:02;;;;;;;0.25;0.10;;;;;;;;;;5050888;28;20566;-66
2024/01/02 04:57:28;;;;;;;0.57;0.30;;;;;;;;;;5050927;28;20116;-66
2024/01/02 04:59:54;;;;;;;0.77;0.20;;;;;;;;;;5050560;28;20184;-65
2024/01/02 05:02:22;;;;;;;0.57;0.22;;;;;;;;;;5050712;28;20029;-66
2024/01/02 05:04:49;;;;;;;0.60;0.20;;;;;;;;;;5050805;28;20020;-66
2024/01/02 05:07:15;;;;;;;0.15;0.10;;;;;;;;;;5050697;28;20031;-66
2024/01/02 05:09:41;;;;;;;0.20;0.20;;;;;;;;;;5050390;28;20112;-66
2024/01/02 05:12:07;;;;;;;0.25;0.17;;;;;;;;;;5051030;28;20100;-66
2024/01/02 05:14:33;;;;;;;0.65;0.15;;;;;;;;;;5050643;28;20128;-66
2024/01/02 05:16:59;;;;;;;0.10;0.10;;;;;;;;;;5050746;28;20111;-66
2024/01/02 05:19:25;;;;;;;0.20;0.15;;;;;;;;;;5050320;28;20105;-66
2024/01/02 05:21:51;;;;;;;0.45;0.20;;;;;;;;;;5050804;28;20504;-65
2024/01/02 05:24:17;;;;;;;0.77;0.38;;;;;;;;;;5050707;28;20031;-66
2024/01/02 05:26:43;;;;;;;0.40;0.20;;;;;;;;;;5050917;28;20104;-65
2024/01/02 05:29:09;;;;;;;0.43;0.25;;;;;;;;;;5050491;28;20074;-66
2024/01/02 05:31:35;;;;;;;0.10;0.10;;;;;;;;;;5050229;28;20021;-65
2024/01/02 05:34:01;;;;;;;0.25;0.20;;;;;;;;;;5050383;28;20070;-66
2024/01/02 05:36:27;;;;;;;0.20;0.13;;;;;;;;;;5050420;28;20459;-66
2024/01/02 05:38:53;;;;;;;0.30;0.20;;;;;;;;;;5050711;28;20118;-66
2024/01/02 05:41:19;;;;;;;1.10;0.20;;;;;;;;;;5049983;28;20477;-66
2024/01/02 05:43:45;;;;;;;0.40;0.20;;;;;;;;;;5050354;28;20025;-66
2024/01/02 05:46:11;;;;;;;0.32;0.10;;;;;;;;;;5050322;28;20520;-65
2024/01/02 05:48:37;;;;;;;0.30;0.20;;;;;;;;;;5050289;28;20032;-66
2024/01/02 05:51:06;;;;;;;0.10;0.10;;;;;;;;;;5049997;28;20484;-65
2024/01/02 05:53:32;;;;;;;0.17;0.15;;;;;;;;;;5050864;28;20493;-66
2024/01/02 05:55:58;;;;;;;0.65;0.40;;;;;;;;;;5054306;28;20112;-66
2024/01/02 05:58:24;;;;;;;0.10;0.10;;;;;;;;;;5054278;28;20563;-66
2024/01/02 06:00:50;;;;;;;0.40;0.25;;;;;;;;;;5054213;28;20067;-65
2024/01/02 06:03:16;;;;;;;0.65;0.13;;;;;;;;;;5053509;28;20044;-65
2024/01/02 06:05:42;;;;;;;0.65;0.35;;;;;;;;;;5053461;28;20521;-65
2024/01/02 06:08:08;;;;;;;0.10;0.10;;;;;;;;;;5053104;28;20029;-65
2024/01/02 06:10:34;;;;;;;0.75;0.30;;;;;;;;;;5053282;28;20028;-65
2024/01/02 06:13:00;;;;;;;0.40;0.25;;;;;;;;;;5053494;28;20017;-66
2024/01/02 06:15:26;;;;;;;0.25;0.25;;;;;;;;;;5053237;28;20040;-66
2024/01/02 06:17:52;;;;;;;0.28;0.20;;;;;;;;;;5053130;28;20029;-66
2024/01/02 06:20:18;;;;;;;0.93;0.40;;;;;;;;;;5052928;28;20664;-65
2024/01/02 06:22:44;;;;;;;0.30;0.20;;;;;;;;;;5053356;28;20114;-65
2024/01/02 06:25:10;;;;;;;0.57;0.20;;;;;;;;;;5053167;28;20025;-66
2024/01/02 06:27:36;;;;;;;0.45;0.22;;;;;;;;;;5053183;28;20021;-66
2024/01/02 06:30:04;;;;;;;0.68;0.20;;;;;;;;;;5051444;28;20021;-66
2024/01/02 06:32:31;;;;;;;0.93;0.30;;;;;;;;;;5052918;28;20039;-66
2024/01/02 06:34:57;;;;;;;0.75;0.30;;;;;;;;;;5052956;28;20036;-66
2024/01/02 06:37:26;;;;;;;0.45;0.35;;;;;;;;;;5052740;28;20443;-65
2024/01/02 06:39:52;;;;;;;0.30;0.25;;;;;;;;;;5052488;28;20024;-66
2024/01/02 06:42:18;;;;;;;0.95;0.40;;;;;;;;;;5052670;28;20131;-66
2024/01/02 06:44:45;;;;;;;0.43;0.40;;;;;;;;;;5052601;28;20056;-65
2024/01/02 06:47:11;;;;;;;0.85;0.15;;;;;;;;;;5052487;28;20554;-65
2024/01/02 06:49:37;;;;;;;0.47;0.30;;;;;;;;;;5052102;28;20056;-65
2024/01/02 06:52:03;;;;;;;0.70;0.40;;;;;;;;;;5052783;28;20123;-65
2024/01/02 06:54:30;;;;;;;0.47;0.30;;;;;;;;;;5052542;28;20025;-65
2024/01/02 06:56:56;;;;;;;0.40;0.25;;;;;;;;;;5052455;28;20051;-66
2024/01/02 06:59:22;;;;;;;0.63;0.20;;;;;;;;;;5052450;28;20132;-65
2024/01/02 07:01:48;;;;;;;0.38;0.30;;;;;;;;;;5052215;28;20043;-65
2024/01/02 07:04:15;;;;;;;0.30;0.20;;;;;;;;;;5052588;28;20025;-65
2024/01/02 07:06:40;;;;;;;0.22;0.22;;;;;;;;;;5052604;28;20068;-65
2024/01/02 07:09:06;;;;;;;0.43;0.25;;;;;;;;;;5068273;22;20264;-69
2024/01/02 07:11:32;;;;;;;0.77;0.50;;;;;;;;;;5053376;28;20044;-71
2024/01/02 07:13:59;;;;;;;0.38;0.28;;;;;;;;;;5053847;28;20021;-71
2024/01/02 07:16:25;;;;;;;0.30;0.20;;;;;;;;;;5053938;28;20029;-71
2024/01/02 07:18:51;;;;;;;0.30;0.20;;;;;;;;;;5053812;28;20035;-71
2024/01/02 07:21:17;;;;;;;0.85;0.38;;;;;;;;;;5053419;28;20025;-71
2024/01/02 07:23:43;;;;;;;0.20;0.20;;;;;;;;;;5053733;28;20021;-71
2024/01/02 07:26:09;;;;;;;0.20;0.20;;;;;;;;;;5053689;28;20143;-72
2024/01/02 07:28:38;;;;;;;1.13;0.50;;;;;;;;;;5053744;28;20036;-71
2024/01/02 07:31:04;;;;;;;1.80;0.60;;;;;;;;;;5053670;28;20397;-72
2024/01/02 07:33:30;;;;;;;0.22;0.13;;;;;;;;;;5053571;28;20112;-71
2024/01/02 07:35:57;;;;;;;0.20;0.20;;;;;;;;;;5053429;28;20489;-71
2024/01/02 07:38:26;;;;;;;0.10;0.10;;;;;;;;;;5053392;28;20115;-71
2024/01/02 07:40:52;;;;;;;0.20;0.20;;;;;;;;;;5053226;28;20017;-71
2024/01/02 07:43:18;;;;;;;0.82;0.10;;;;;;;;;;5053779;28;20025;-70
2024/01/02 07:45:44;;;;;;;0.13;0.10;;;;;;;;;;5054764;28;20021;-69
2024/01/02 07:48:10;;;;;;;0.88;0.50;;;;;;;;;;5053332;28;20021;-70
2024/01/02 07:50:36;;;;;;;0.60;0.40;;;;;;;;;;5052921;28;20028;-69
2024/01/02 07:53:02;;;;;;;1.10;0.32;;;;;;;;;;5053353;28;20033;-70
2024/01/02 07:55:28;;;;;;;0.90;0.30;;;;;;;;;;5053230;28;20557;-70
2024/01/02 07:57:54;;;;;;;0.30;0.30;;;;;;;;;;5053190;28;20143;-70
2024/01/02 08:00:20;;;;;;;1.30;0.50;;;;;;;;;;5052995;28;20029;-70
2024/01/02 08:02:46;;;;;;;0.95;0.20;;;;;;;;;;5047208;28;20108;-70
2024/01/02 08:05:12;;;;;;;0.50;0.22;;;;;;;;;;5033084;28;20108;-71
2024/01/02 08:07:38;;;;;;;0.43;0.30;;;;;;;;;;5033229;28;20049;-71
2024/01/02 08:10:04;;;;;;;0.10;0.10;;;;;;;;;;5032631;28;20053;-70
2024/01/02 08:12:30;;;;;;;0.75;0.30;;;;;;;;;;5033067;28;20075;-70
2024/01/02 08:14:56;;;;;;;0.55;0.38;;;;;;;;;;5032905;28;20029;-70
2024/01/02 08:17:23;;;;;;;0.57;0.20;;;;;;;;;;5035801;28;20090;-70
2024/01/02 08:19:52;;;;;;;0.10;0.10;;;;;;;;;;5052483;28;20134;-70
2024/01/02 08:22:21;;;;;;;0.20;0.20;;;;;;;;;;5052505;28;20051;-70
2024/01/02 08:24:48;;;;;;;0.63;0.32;;;;;;;;;;5052550;28;20777;-68
2024/01/02 08:27:14;;;;;;;0.38;0.30;;;;;;;;;;5052599;28;20024;-70
2024/01/02 08:29:40;;;;;;;0.43;0.38;;;;;;;;;;5052324;28;20363;-69
2024/01/02 08:32:06;;;;;;;0.28;0.22;;;;;;;;;;5052521;28;20037;-70
2024/01/02 08:34:32;;;;;;;0.95;0.57;;;;;;;;;;5052539;28;20028;-70
2024/01/02 08:36:58;;;;;;;0.55;0.32;;;;;;;;;;5052385;28;20107;-70
2024/01/02 08:39:24;;;;;;;0.40;0.30;;;;;;;;;;5052154;28;20187;-67
2024/01/02 08:41:50;;;;;;;0.60;0.30;;;;;;;;;;5052099;28;20017;-70
2024/01/02 08:44:16;;;;;;;0.82;0.40;;;;;;;;;;5052357;28;20021;-69
2024/01/02 08:46:42;;;;;;;0.57;0.30;;;;;;;;;;5052239;28;20013;-70
2024/01/02 08:49:11;;;;;;;0.50;0.40;;;;;;;;;;5051795;28;20446;-70
2024/01/02 08:51:37;;;;;;;0.17;0.05;;;;;;;;;;5051837;28;20040;-70
2024/01/02 08:54:04;;;;;;;0.40;0.20;;;;;;;;;;5050588;28;20024;-68
2024/01/02 08:56:30;;;;;;;0.43;0.20;;;;;;;;;;5051898;28;20025;-70
2024/01/02 08:58:56;;;;;;;0.80;0.30;;;;;;;;;;5052096;28;20037;-70
2024/01/02 09:01:22;;;;;;;0.22;0.20;;;;;;;;;;5051770;28;20027;-70
2024/01/02 09:03:48;;;;;;;0.77;0.30;;;;;;;;;;5051903;28;20049;-70
2024/01/02 09:06:20;;;;;;;0.70;0.30;;;;;;;;;;5051862;28;20057;-70
2024/01/02 09:08:46;;;;;;;0.57;0.30;;;;;;;;;;5051607;28;20082;-70
2024/01/02 09:11:13;;;;;;;0.80;0.40;;;;;;;;;;5051626;28;20021;-69
2024/01/02 09:13:39;;;;;;;0.75;0.30;;;;;;;;;;5051024;28;20037;-69
2024/01/02 09:16:07;;;;;;;0.40;0.20;;;;;;;;;;5050254;28;20188;-70
2024/01/02 09:18:33;;;;;;;1.00;0.35;;;;;;;;;;5050431;28;20351;-69
2024/01/02 09:20:59;;;;;;;0.40;0.20;;;;;;;;;;5050001;28;20025;-70
2024/01/02 09:23:25;;;;;;;0.30;0.20;;;;;;;;;;5049972;28;20131;-70
2024/01/02 09:25:52;;;;;;;0.68;0.40;;;;;;;;;;5050292;28;20525;-70
2024/01/02 09:28:19;;;;;;;0.40;0.30;;;;;;;;;;5049449;28;20398;-70
2024/01/02 09:30:46;;;;;;;0.75;0.25;;;;;;;;;;5048343;28;20029;-70
2024/01/02 09:33:12;;;;;;;0.95;0.50;;;;;;;;;;5048506;28;20034;-71
2024/01/02 09:35:38;;;;;;;0.63;0.20;;;;;;;;;;5049701;28;20021;-70
2024/01/02 09:38:04;;;;;;;0.55;0.22;;;;;;;;;;5049494;28;20033;-71
2024/01/02 09:40:49;;;;;;;0.25;0.15;;;;;;;;;;5049542;28;20025;-70
2024/01/02 09:43:34;;;;;;;0.50;0.40;;;;;;;;;;5049714;28;20024;-70
2024/01/02 09:46:05;;;;;;;0.93;0.30;;;;;;;;;;5049574;28;20032;-70
2024/01/02 09:48:31;;;;;;;;;;;;;;;;;;5050007;28;20463;-71
2024/01/02 09:51:15;;;;;;;0.20;0.13;;;;;;;;;;5047876;28;20019;-71
2024/01/02 09:53:41;;;;;;;0.65;0.30;;;;;;;;;;5049554;28;20510;-70
2024/01/02 09:56:11;;;;;;;0.55;0.45;;;;;;;;;;5049584;28;20117;-70
2024/01/02 09:58:52;;;;;;;0.32;0.20;;;;;;;;;;5049186;28;20032;-69
2024/01/02 10:01:18;;;;;;;0.40;0.40;;;;;;;;;;5049093;28;20029;-69
2024/01/02 10:03:47;;;;;;;0.55;0.28;;;;;;;;;;5049307;28;20094;-69
2024/01/02 10:06:13;;;;;;;0.50;0.30;;;;;;;;;;5049391;28;20033;-69
2024/01/02 10:08:54;;;;;;;0.30;0.30;;;;;;;;;;5049109;28;20344;-69
2024/01/02 10:11:20;;;;;;;;;;;;;;;;;;5049702;28;20032;-69
2024/01/02 10:13:59;;;;;;;0.30;0.20;;;;;;;;;;5049401;28;20370;-69
2024/01/02 10:16:25;;;;;;;0.52;0.40;;;;;;;;;;5049344;28;20021;-69
2024/01/02 10:19:02;;;;;;;0.43;0.30;;;;;;;;;;5049278;28;20520;-69
2024/01/02 10:21:37;;;;;;;0.20;0.20;;;;;;;;;;5048938;28;20089;-69
2024/01/02 10:24:12;;;;;;;0.98;0.40;;;;;;;;;;5049387;28;20017;-70
2024/01/02 10:26:39;;;;;;;0.10;0.10;;;;;;;;;;5049381;28;20021;-70
2024/01/02 10:29:10;;;;;;;0.82;0.45;;;;;;;;;;5049444;28;20091;-69
2024/01/02 10:31:36;;;;;;;0.38;0.30;;;;;;;;;;5049179;28;20029;-69
2024/01/02 10:34:11;;;;;;;0.20;0.20;;;;;;;;;;5049151;28;20048;-70
2024/01/02 10:36:42;;;;;;;0.30;0.20;;;;;;;;;;5047110;28;20459;-70
2024/01/02 10:39:08;;;;;;;;;;;;;;;;;;5029909;28;20026;-70
2024/01/02 10:41:53;;;;;;;0.30;0.10;;;;;;;;;;5031459;28;20325;-69
2024/01/02 10:44:27;;;;;;;0.20;0.17;;;;;;;;;;5033120;28;20192;-69
2024/01/02 10:46:53;;;;;;;0.70;0.10;;;;;;;;;;5032882;28;20064;-70
2024/01/02 10:49:31;;;;;;;0.30;0.30;;;;;;;;;;5032952;28;20129;-69
2024/01/02 10:52:02;;;;;;;0.50;0.30;;;;;;;;;;5034532;28;20056;-69
2024/01/02 10:54:28;;;;;;;;;;;;;;;;;;5051628;28;20021;-70
2024/01/02 10:57:00;;;;;;;0.32;0.32;;;;;;;;;;5052459;28;20428;-69
2024/01/02 10:59:35;;;;;;;0.30;0.30;;;;;;;;;;5052230;28;20036;-69
2024/01/02 11:02:10;;;;;;;1.10;0.28;;;;;;;;;;5050889;28;20040;-69
2024/01/02 11:04:39;;;;;;;0.65;0.35;;;;;;;;;;5052405;28;20108;-69
2024/01/02 11:07:06;;;;;;;0.20;0.20;;;;;;;;;;5052397;28;20060;-70
2024/01/02 11:09:44;;;;;;;0.40;0.40;;;;;;;;;;5052080;28;20052;-68
2024/01/02 11:12:10;;;;;;;0.88;0.50;;;;;;;;;;5052204;28;20028;-69
2024/01/02 11:14:38;;;;;;;0.10;0.10;;;;;;;;;;5052012;28;20435;-69
2024/01/02 11:17:05;;;;;;;0.35;0.20;;;;;;;;;;5052094;28;20025;-70
2024/01/02 11:19:40;;;;;;;0.15;0.10;;;;;;;;;;5051941;28;20111;-69
2024/01/02 11:22:06;;;;;;;0.13;0.13;;;;;;;;;;5051656;28;20037;-69
2024/01/02 11:24:34;;;;;;;0.30;0.28;;;;;;;;;;5051914;28;20091;-69
2024/01/02 11:27:03;;;;;;;0.20;0.20;;;;;;;;;;5052044;28;20037;-69
2024/01/02 11:29:31;;;;;;;0.50;0.20;;;;;;;;;;5051781;28;20017;-70
2024/01/02 11:31:58;;;;;;;0.30;0.20;;;;;;;;;;5051690;28;20100;-69
2024/01/02 11:34:36;;;;;;;0.52;0.40;;;;;;;;;;5051583;28;20462;-69
2024/01/02 11:37:02;;;;;;;0.10;0.10;;;;;;;;;;5051885;28;20017;-70
2024/01/02 11:39:31;;;;;;;0.10;0.10;;;;;;;;;;5050071;28;20078;-70
2024/01/02 11:42:07;;;;;;;0.20;0.20;;;;;;;;;;5051615;28;20116;-69
2024/01/02 11:44:51;;;;;;;0.50;0.30;;;;;;;;;;5051695;28;20029;-70
2024/01/02 11:47:28;;;;;;;0.38;0.15;;;;;;;;;;5051609;28;20017;-69
2024/01/02 11:49:57;;;;;;;0.20;0.20;;;;;;;;;;5051195;28;20089;-69
2024/01/02 11:52:24;;;;;;;0.20;0.10;;;;;;;;;;5050348;28;20033;-69
2024/01/02 11:54:53;;;;;;;0.55;0.10;;;;;;;;;;5051129;28;20123;-69
2024/01/02 11:57:24;;;;;;;0.35;0.22;;;;;;;;;;5051395;28;20025;-70
2024/01/02 11:59:51;;;;;;;0.30;0.20;;;;;;;;;;5051163;28;20036;-70
2024/01/02 12:02:21;;;;;;;0.10;0.10;;;;;;;;;;5051285;28;20035;-70
2024/01/02 12:05:05;;;;;;;0.30;0.30;;;;;;;;;;5049751;28;20032;-70
2024/01/02 12:07:37;;;;;;;0.40;0.40;;;;;;;;;;5051301;28;20397;-70
2024/01/02 12:10:04;;;;;;;0.25;0.25;;;;;;;;;;5050679;28;20033;-69
2024/01/02 12:12:48;;;;;;;0.30;0.25;;;;;;;;;;5051263;28;20459;-70
2024/01/02 12:15:20;;;;;;;0.17;0.17;;;;;;;;;;5051130;28;20044;-70
2024/01/02 12:18:00;;;;;;;0.00;0.00;;;;;;;;;;5051006;28;20056;-70
2024/01/02 12:20:28;;;;;;;0.28;0.10;;;;;;;;;;5050665;28;20028;-70
2024/01/02 12:22:54;;;;;;;0.20;0.20;;;;;;;;;;5050894;28;20027;-69
2024/01/02 12:25:20;;;;;;;0.30;0.20;;;;;;;;;;5050924;28;20136;-69
2024/01/02 12:27:49;;;;;;;0.30;0.30;;;;;;;;;;5051078;28;20028;-70
2024/01/02 12:30:21;;;;;;;0.20;0.17;;;;;;;;;;5050510;28;20029;-69
2024/01/02 12:32:53;;;;;;;0.50;0.20;;;;;;;;;;5050663;28;20090;-70
2024/01/02 12:35:19;;;;;;;;;;;;;;;;;;5049732;28;20053;-70
2024/01/02 12:38:03;;;;;;;0.17;0.13;;;;;;;;;;5050511;28;19955;-70
2024/01/02 12:40:30;;;;;;;0.13;0.13;;;;;;;;;;5050267;28;20103;-70
2024/01/02 12:42:58;;;;;;;0.25;0.20;;;;;;;;;;5048959;28;20051;-70
2024/01/02 12:45:26;;;;;;;0.20;0.15;;;;;;;;;;5050366;28;20437;-69
2024/01/02 12:47:58;;;;;;;0.10;0.10;;;;;;;;;;5049029;28;20036;-70
2024/01/02 12:50:24;;;;;;;0.20;0.20;;;;;;;;;;5050181;28;20418;-69
2024/01/02 12:53:09;;;;;;;0.45;0.32;;;;;;;;;;5050242;28;20104;-70
2024/01/02 12:55:43;;;;;;;0.30;0.22;;;;;;;;;;5050345;28;20029;-69
2024/01/02 12:58:10;;;;;;;0.10;0.10;;;;;;;;;;5050622;28;20397;-69
2024/01/02 13:00:37;;;;;;;0.20;0.20;;;;;;;;;;5049997;28;20087;-70
2024/01/02 13:03:03;;;;;;;0.10;0.10;;;;;;;;;;5050046;28;20020;-69
2024/01/02 13:05:29;;;;;;;0.75;0.20;;;;;;;;;;5050221;28;20017;-69
2024/01/02 13:07:55;;;;;;;0.47;0.20;;;;;;;;;;5050420;28;20024;-69
2024/01/02 13:10:24;;;;;;;0.10;0.10;;;;;;;;;;5073543;22;20052;-64
2024/01/02 13:12:53;;;;;;;0.35;0.20;;;;;;;;;;5051587;28;20067;-64
2024/01/02 13:15:21;;;;;;;0.40;0.30;;;;;;;;;;5051728;28;20029;-66
2024/01/02 13:17:47;;;;;;;0.68;0.55;;;;;;;;;;5051618;28;20072;-66
2024/01/02 13:20:13;;;;;;;0.25;0.20;;;;;;;;;;5051461;28;20029;-66
2024/01/02 13:22:40;;;;;;;0.30;0.20;;;;;;;;;;5051869;28;20029;-66
2024/01/02 13:25:17;;;;;;;0.40;0.20;;;;;;;;;;5050246;28;20112;-66
2024/01/02 13:27:43;;;;;;;0.30;0.20;;;;;;;;;;5052180;28;20035;-66
2024/01/02 13:30:09;;;;;;;0.22;0.22;;;;;;;;;;5051520;28;20029;-64
2024/01/02 13:32:35;;;;;;;0.30;0.30;;;;;;;;;;5050565;28;20032;-64
2024/01/02 13:35:20;;;;;;;0.20;0.15;;;;;;;;;;5051548;28;20482;-64
2024/01/02 13:37:47;;;;;;;0.20;0.15;;;;;;;;;;5051744;28;20055;-65
2024/01/02 13:40:23;;;;;;;0.10;0.10;;;;;;;;;;5051261;28;20028;-65
2024/01/02 13:43:00;;;;;;;0.43;0.20;;;;;;;;;;5051871;28;20037;-65
2024/01/02 13:45:32;;;;;;;0.28;0.22;;;;;;;;;;5051663;28;20029;-65
2024/01/02 13:48:12;;;;;;;0.30;0.20;;;;;;;;;;5051483;28;20017;-65
2024/01/02 13:50:39;;;;;;;0.30;0.20;;;;;;;;;;5051126;28;20094;-65
2024/01/02 13:53:06;;;;;;;0.20;0.20;;;;;;;;;;5051166;28;20025;-65
2024/01/02 13:55:39;;;;;;;0.10;0.10;;;;;;;;;;5049982;28;20426;-65
2024/01/02 13:58:10;;;;;;;0.25;0.17;;;;;;;;;;5051312;28;20029;-65
2024/01/02 14:00:37;;;;;;;0.30;0.15;;;;;;;;;;5050980;28;20103;-65
2024/01/02 14:03:04;;;;;;;0.10;0.10;;;;;;;;;;5051082;28;20078;-65
2024/01/02 14:05:30;;;;;;;0.55;0.32;;;;;;;;;;5051164;28;20025;-65
2024/01/02 14:07:58;;;;;;;0.20;0.20;;;;;;;;;;5051100;28;20043;-65
2024/01/02 14:10:33;;;;;;;0.47;0.32;;;;;;;;;;5050918;28;20029;-65
2024/01/02 14:12:59;;;;;;;0.10;0.10;;;;;;;;;;5051129;28;20031;-65
2024/01/02 14:15:25;;;;;;;0.20;0.20;;;;;;;;;;5052893;28;20055;-65
2024/01/02 14:18:00;;;;;;;0.20;0.10;;;;;;;;;;5054865;28;20074;-65
2024/01/02 14:20:33;;;;;;;0.28;0.28;;;;;;;;;;5055071;28;20056;-65
2024/01/02 14:23:02;;;;;;;0.10;0.10;;;;;;;;;;5054951;28;20029;-65
2024/01/02 14:25:34;;;;;;;0.28;0.15;;;;;;;;;;5054959;28;20082;-65
2024/01/02 14:28:00;;;;;;;0.10;0.10;;;;;;;;;;5054940;28;20079;-65
2024/01/02 14:30:31;;;;;;;0.80;0.30;;;;;;;;;;5054480;28;20017;-65
2024/01/02 14:33:16;;;;;;;0.30;0.20;;;;;;;;;;5054714;28;20491;-65
2024/01/02 14:36:00;;;;;;;0.35;0.20;;;;;;;;;;5054900;28;20036;-65
2024/01/02 14:38:48;;;;;;;0.60;0.30;;;;;;;;;;5054765;28;20490;-65
2024/01/02 14:41:28;;;;;;;0.30;0.20;;;;;;;;;;5054710;28;20045;-65
2024/01/02 14:44:13;;;;;;;0.38;0.30;;;;;;;;;;5054383;28;20031;-65
2024/01/02 14:46:47;;;;;;;0.10;0.10;;;;;;;;;;5054621;28;20029;-65
2024/01/02 14:49:19;;;;;;;0.20;0.20;;;;;;;;;;5054340;28;20021;-65